sensor_id;sensor_type;location;lat;lon;timestamp;P1;durP1;ratioP1;P2;durP2;ratioP2
38715;SDS011;24833;49.324;8.694;2023-06-22T00:00:03;4.45;;;3.00;;
38715;SDS011;24833;49.324;8.694;2023-06-22T00:02:37;3.95;;;2.97;;
38715;SDS011;24833;49.324;8.694;2023-06-22T00:05:04;3.97;;;3.55;;
38715;SDS011;24833;49.324;8.694;2023-06-22T00:07:32;3.65;;;2.97;;
38715;SDS011;24833;49.324;8.694;2023-06-22T00:09:59;2.92;;;2.65;;
38715;SDS011;24833;49.324;8.694;2023-06-22T00:12:26;5.72;;;2.70;;
38715;SDS011;24833;49.324;8.694;2023-06-22T00:14:53;6.10;;;3.15;;
38715;SDS011;24833;49.324;8.694;2023-06-22T00:17:20;3.30;;;2.95;;
38715;SDS011;24833;49.324;8.694;2023-06-22T00:19:47;4.47;;;2.90;;
38715;SDS011;24833;49.324;8.694;2023-06-22T00:22:19;2.95;;;2.65;;
38715;SDS011;24833;49.324;8.694;2023-06-22T00:24:56;3.22;;;2.92;;
38715;SDS011;24833;49.324;8.694;2023-06-22T00:27:23;2.90;;;2.25;;
38715;SDS011;24833;49.324;8.694;2023-06-22T00:29:50;2.90;;;2.58;;
38715;SDS011;24833;49.324;8.694;2023-06-22T00:32:18;3.00;;;2.53;;
38715;SDS011;24833;49.324;8.694;2023-06-22T00:34:46;3.50;;;3.05;;
38715;SDS011;24833;49.324;8.694;2023-06-22T00:37:13;3.53;;;2.58;;
38715;SDS011;24833;49.324;8.694;2023-06-22T00:39:41;3.75;;;2.78;;
38715;SDS011;24833;49.324;8.694;2023-06-22T00:42:10;3.15;;;2.83;;
38715;SDS011;24833;49.324;8.694;2023-06-22T00:44:37;4.28;;;3.00;;
38715;SDS011;24833;49.324;8.694;2023-06-22T00:47:04;2.63;;;2.42;;
38715;SDS011;24833;49.324;8.694;2023-06-22T00:49:33;4.47;;;2.95;;
38715;SDS011;24833;49.324;8.694;2023-06-22T00:52:00;2.97;;;2.67;;
38715;SDS011;24833;49.324;8.694;2023-06-22T00:54:27;4.68;;;2.92;;
38715;SDS011;24833;49.324;8.694;2023-06-22T00:56:55;2.58;;;2.38;;
38715;SDS011;24833;49.324;8.694;2023-06-22T00:59:24;4.25;;;3.30;;
38715;SDS011;24833;49.324;8.694;2023-06-22T01:01:52;6.38;;;3.20;;
38715;SDS011;24833;49.324;8.694;2023-06-22T01:04:19;6.32;;;3.10;;
38715;SDS011;24833;49.324;8.694;2023-06-22T01:06:54;5.68;;;3.63;;
38715;SDS011;24833;49.324;8.694;2023-06-22T01:09:32;4.63;;;3.40;;
38715;SDS011;24833;49.324;8.694;2023-06-22T01:12:07;5.05;;;3.53;;
38715;SDS011;24833;49.324;8.694;2023-06-22T01:14:43;4.35;;;3.25;;
38715;SDS011;24833;49.324;8.694;2023-06-22T01:17:24;3.70;;;3.28;;
38715;SDS011;24833;49.324;8.694;2023-06-22T01:19:54;4.57;;;3.30;;
38715;SDS011;24833;49.324;8.694;2023-06-22T01:30:56;6.88;;;3.88;;
38715;SDS011;24833;49.324;8.694;2023-06-22T01:33:33;7.00;;;4.88;;
38715;SDS011;24833;49.324;8.694;2023-06-22T01:36:03;3.78;;;3.47;;
38715;SDS011;24833;49.324;8.694;2023-06-22T01:38:32;4.15;;;3.33;;
38715;SDS011;24833;49.324;8.694;2023-06-22T01:41:00;3.67;;;3.22;;
38715;SDS011;24833;49.324;8.694;2023-06-22T01:43:28;4.50;;;3.10;;
38715;SDS011;24833;49.324;8.694;2023-06-22T01:45:57;3.40;;;3.10;;
38715;SDS011;24833;49.324;8.694;2023-06-22T01:48:26;3.90;;;2.97;;
38715;SDS011;24833;49.324;8.694;2023-06-22T01:50:53;3.17;;;2.88;;
38715;SDS011;24833;49.324;8.694;2023-06-22T01:53:22;3.67;;;3.38;;
38715;SDS011;24833;49.324;8.694;2023-06-22T01:55:51;3.03;;;2.73;;
38715;SDS011;24833;49.324;8.694;2023-06-22T01:58:19;3.55;;;3.25;;
38715;SDS011;24833;49.324;8.694;2023-06-22T02:01:09;4.43;;;3.58;;
38715;SDS011;24833;49.324;8.694;2023-06-22T02:03:41;4.55;;;3.22;;
38715;SDS011;24833;49.324;8.694;2023-06-22T02:06:24;4.10;;;3.08;;
38715;SDS011;24833;49.324;8.694;2023-06-22T02:09:02;3.40;;;2.60;;
38715;SDS011;24833;49.324;8.694;2023-06-22T02:11:37;3.92;;;3.00;;
38715;SDS011;24833;49.324;8.694;2023-06-22T02:14:09;3.00;;;2.78;;
38715;SDS011;24833;49.324;8.694;2023-06-22T02:16:38;3.35;;;3.05;;
38715;SDS011;24833;49.324;8.694;2023-06-22T02:19:07;3.40;;;3.10;;
38715;SDS011;24833;49.324;8.694;2023-06-22T02:21:34;3.83;;;3.40;;
38715;SDS011;24833;49.324;8.694;2023-06-22T02:24:01;6.30;;;3.45;;
38715;SDS011;24833;49.324;8.694;2023-06-22T02:26:29;4.85;;;3.50;;
38715;SDS011;24833;49.324;8.694;2023-06-22T02:29:00;4.15;;;3.53;;
38715;SDS011;24833;49.324;8.694;2023-06-22T02:31:27;6.95;;;3.65;;
38715;SDS011;24833;49.324;8.694;2023-06-22T02:34:00;4.87;;;3.60;;
38715;SDS011;24833;49.324;8.694;2023-06-22T02:36:27;3.92;;;3.42;;
38715;SDS011;24833;49.324;8.694;2023-06-22T02:39:00;3.97;;;3.58;;
38715;SDS011;24833;49.324;8.694;2023-06-22T02:41:29;4.32;;;3.45;;
38715;SDS011;24833;49.324;8.694;2023-06-22T02:43:56;6.10;;;3.20;;
38715;SDS011;24833;49.324;8.694;2023-06-22T02:46:24;5.68;;;3.35;;
38715;SDS011;24833;49.324;8.694;2023-06-22T02:48:52;4.18;;;2.78;;
38715;SDS011;24833;49.324;8.694;2023-06-22T02:51:19;3.17;;;2.88;;
38715;SDS011;24833;49.324;8.694;2023-06-22T02:53:46;2.72;;;2.53;;
38715;SDS011;24833;49.324;8.694;2023-06-22T02:56:15;3.08;;;2.78;;
38715;SDS011;24833;49.324;8.694;2023-06-22T02:58:42;6.13;;;3.42;;
38715;SDS011;24833;49.324;8.694;2023-06-22T03:01:10;3.65;;;3.13;;
38715;SDS011;24833;49.324;8.694;2023-06-22T03:03:42;6.15;;;3.28;;
38715;SDS011;24833;49.324;8.694;2023-06-22T03:06:09;4.25;;;3.13;;
38715;SDS011;24833;49.324;8.694;2023-06-22T03:08:40;5.25;;;3.25;;
38715;SDS011;24833;49.324;8.694;2023-06-22T03:11:10;4.95;;;3.03;;
38715;SDS011;24833;49.324;8.694;2023-06-22T03:13:37;3.67;;;3.17;;
38715;SDS011;24833;49.324;8.694;2023-06-22T03:16:06;4.13;;;3.65;;
38715;SDS011;24833;49.324;8.694;2023-06-22T03:18:33;5.20;;;3.33;;
38715;SDS011;24833;49.324;8.694;2023-06-22T03:21:00;4.63;;;3.90;;
38715;SDS011;24833;49.324;8.694;2023-06-22T03:23:30;3.70;;;3.08;;
38715;SDS011;24833;49.324;8.694;2023-06-22T03:25:57;4.15;;;3.45;;
38715;SDS011;24833;49.324;8.694;2023-06-22T03:28:24;5.20;;;3.72;;
38715;SDS011;24833;49.324;8.694;2023-06-22T03:30:51;5.55;;;3.70;;
38715;SDS011;24833;49.324;8.694;2023-06-22T03:33:18;3.78;;;3.33;;
38715;SDS011;24833;49.324;8.694;2023-06-22T03:35:45;4.82;;;3.38;;
38715;SDS011;24833;49.324;8.694;2023-06-22T03:38:12;3.90;;;3.42;;
38715;SDS011;24833;49.324;8.694;2023-06-22T03:40:39;6.22;;;3.58;;
38715;SDS011;24833;49.324;8.694;2023-06-22T03:43:06;5.78;;;3.72;;
38715;SDS011;24833;49.324;8.694;2023-06-22T03:45:34;4.35;;;3.60;;
38715;SDS011;24833;49.324;8.694;2023-06-22T03:48:01;3.65;;;3.30;;
38715;SDS011;24833;49.324;8.694;2023-06-22T03:50:30;3.75;;;3.45;;
38715;SDS011;24833;49.324;8.694;2023-06-22T03:52:57;5.07;;;3.40;;
38715;SDS011;24833;49.324;8.694;2023-06-22T03:55:24;6.25;;;4.53;;
38715;SDS011;24833;49.324;8.694;2023-06-22T03:57:51;5.15;;;3.92;;
38715;SDS011;24833;49.324;8.694;2023-06-22T04:00:20;4.70;;;3.95;;
38715;SDS011;24833;49.324;8.694;2023-06-22T04:02:47;6.18;;;3.67;;
38715;SDS011;24833;49.324;8.694;2023-06-22T04:05:15;3.55;;;3.25;;
38715;SDS011;24833;49.324;8.694;2023-06-22T04:07:43;6.00;;;3.55;;
38715;SDS011;24833;49.324;8.694;2023-06-22T04:10:10;4.30;;;3.60;;
38715;SDS011;24833;49.324;8.694;2023-06-22T04:12:38;4.00;;;3.60;;
38715;SDS011;24833;49.324;8.694;2023-06-22T04:15:06;4.05;;;3.60;;
38715;SDS011;24833;49.324;8.694;2023-06-22T04:17:33;6.13;;;3.50;;
38715;SDS011;24833;49.324;8.694;2023-06-22T04:20:00;4.45;;;3.65;;
38715;SDS011;24833;49.324;8.694;2023-06-22T04:22:29;4.30;;;3.53;;
38715;SDS011;24833;49.324;8.694;2023-06-22T04:24:56;3.70;;;3.35;;
38715;SDS011;24833;49.324;8.694;2023-06-22T04:27:23;4.47;;;3.90;;
38715;SDS011;24833;49.324;8.694;2023-06-22T04:29:50;4.18;;;3.75;;
38715;SDS011;24833;49.324;8.694;2023-06-22T04:32:17;4.68;;;4.10;;
38715;SDS011;24833;49.324;8.694;2023-06-22T04:34:44;7.30;;;4.20;;
38715;SDS011;24833;49.324;8.694;2023-06-22T04:37:11;4.30;;;3.90;;
38715;SDS011;24833;49.324;8.694;2023-06-22T04:39:42;5.90;;;3.63;;
38715;SDS011;24833;49.324;8.694;2023-06-22T04:42:11;5.18;;;4.35;;
38715;SDS011;24833;49.324;8.694;2023-06-22T04:44:39;5.13;;;4.13;;
38715;SDS011;24833;49.324;8.694;2023-06-22T04:47:07;5.38;;;4.68;;
38715;SDS011;24833;49.324;8.694;2023-06-22T04:49:35;4.50;;;3.72;;
38715;SDS011;24833;49.324;8.694;2023-06-22T04:52:04;6.55;;;4.63;;
38715;SDS011;24833;49.324;8.694;2023-06-22T04:54:33;9.17;;;4.93;;
38715;SDS011;24833;49.324;8.694;2023-06-22T04:57:02;4.28;;;3.88;;
38715;SDS011;24833;49.324;8.694;2023-06-22T04:59:31;5.05;;;4.13;;
38715;SDS011;24833;49.324;8.694;2023-06-22T05:01:59;5.05;;;4.40;;
38715;SDS011;24833;49.324;8.694;2023-06-22T05:04:27;7.05;;;4.65;;
38715;SDS011;24833;49.324;8.694;2023-06-22T05:06:59;9.27;;;4.40;;
38715;SDS011;24833;49.324;8.694;2023-06-22T05:09:26;4.85;;;4.20;;
38715;SDS011;24833;49.324;8.694;2023-06-22T05:11:54;6.53;;;4.30;;
38715;SDS011;24833;49.324;8.694;2023-06-22T05:14:22;4.40;;;4.00;;
38715;SDS011;24833;49.324;8.694;2023-06-22T05:16:49;5.28;;;4.68;;
38715;SDS011;24833;49.324;8.694;2023-06-22T05:19:18;5.72;;;4.60;;
38715;SDS011;24833;49.324;8.694;2023-06-22T05:21:45;4.55;;;4.10;;
38715;SDS011;24833;49.324;8.694;2023-06-22T05:24:12;4.35;;;3.75;;
38715;SDS011;24833;49.324;8.694;2023-06-22T05:26:39;4.13;;;3.63;;
38715;SDS011;24833;49.324;8.694;2023-06-22T05:29:06;6.10;;;3.78;;
38715;SDS011;24833;49.324;8.694;2023-06-22T05:31:34;4.05;;;3.65;;
38715;SDS011;24833;49.324;8.694;2023-06-22T05:34:01;4.93;;;3.92;;
38715;SDS011;24833;49.324;8.694;2023-06-22T05:36:28;7.20;;;4.53;;
38715;SDS011;24833;49.324;8.694;2023-06-22T05:38:56;5.07;;;4.55;;
38715;SDS011;24833;49.324;8.694;2023-06-22T05:41:24;4.75;;;4.07;;
38715;SDS011;24833;49.324;8.694;2023-06-22T05:43:51;4.45;;;4.00;;
38715;SDS011;24833;49.324;8.694;2023-06-22T05:46:18;5.63;;;4.53;;
38715;SDS011;24833;49.324;8.694;2023-06-22T05:48:46;6.07;;;4.55;;
38715;SDS011;24833;49.324;8.694;2023-06-22T05:51:13;4.40;;;3.90;;
38715;SDS011;24833;49.324;8.694;2023-06-22T05:53:40;6.18;;;5.07;;
38715;SDS011;24833;49.324;8.694;2023-06-22T05:56:07;5.72;;;4.70;;
38715;SDS011;24833;49.324;8.694;2023-06-22T05:58:35;5.38;;;4.55;;
38715;SDS011;24833;49.324;8.694;2023-06-22T06:01:02;8.00;;;4.63;;
38715;SDS011;24833;49.324;8.694;2023-06-22T06:03:29;6.00;;;4.70;;
38715;SDS011;24833;49.324;8.694;2023-06-22T06:05:56;5.15;;;4.65;;
38715;SDS011;24833;49.324;8.694;2023-06-22T06:08:23;4.32;;;3.92;;
38715;SDS011;24833;49.324;8.694;2023-06-22T06:10:50;4.90;;;4.38;;
38715;SDS011;24833;49.324;8.694;2023-06-22T06:13:19;6.25;;;5.15;;
38715;SDS011;24833;49.324;8.694;2023-06-22T06:15:47;6.63;;;5.07;;
38715;SDS011;24833;49.324;8.694;2023-06-22T06:18:14;5.68;;;4.68;;
38715;SDS011;24833;49.324;8.694;2023-06-22T06:20:41;6.47;;;5.50;;
38715;SDS011;24833;49.324;8.694;2023-06-22T06:23:08;6.60;;;5.00;;
38715;SDS011;24833;49.324;8.694;2023-06-22T06:25:35;5.80;;;5.13;;
38715;SDS011;24833;49.324;8.694;2023-06-22T06:28:02;6.00;;;5.47;;
38715;SDS011;24833;49.324;8.694;2023-06-22T06:30:29;5.15;;;4.60;;
38715;SDS011;24833;49.324;8.694;2023-06-22T06:32:57;7.00;;;6.07;;
38715;SDS011;24833;49.324;8.694;2023-06-22T06:35:25;7.07;;;5.28;;
38715;SDS011;24833;49.324;8.694;2023-06-22T06:37:52;6.57;;;5.72;;
38715;SDS011;24833;49.324;8.694;2023-06-22T06:40:19;5.90;;;4.60;;
38715;SDS011;24833;49.324;8.694;2023-06-22T06:42:47;5.90;;;5.40;;
38715;SDS011;24833;49.324;8.694;2023-06-22T06:45:17;6.70;;;5.43;;
38715;SDS011;24833;49.324;8.694;2023-06-22T06:47:49;6.88;;;5.25;;
38715;SDS011;24833;49.324;8.694;2023-06-22T06:50:18;5.70;;;4.50;;
38715;SDS011;24833;49.324;8.694;2023-06-22T06:52:45;5.20;;;4.70;;
38715;SDS011;24833;49.324;8.694;2023-06-22T06:55:12;8.73;;;5.70;;
38715;SDS011;24833;49.324;8.694;2023-06-22T06:57:40;6.80;;;5.20;;
38715;SDS011;24833;49.324;8.694;2023-06-22T07:00:09;5.25;;;4.75;;
38715;SDS011;24833;49.324;8.694;2023-06-22T07:02:43;11.20;;;5.53;;
38715;SDS011;24833;49.324;8.694;2023-06-22T07:05:12;7.53;;;5.65;;
38715;SDS011;24833;49.324;8.694;2023-06-22T07:07:39;5.53;;;5.03;;
38715;SDS011;24833;49.324;8.694;2023-06-22T07:10:08;12.50;;;6.60;;
38715;SDS011;24833;49.324;8.694;2023-06-22T07:12:35;6.95;;;5.45;;
38715;SDS011;24833;49.324;8.694;2023-06-22T07:15:09;6.20;;;5.13;;
38715;SDS011;24833;49.324;8.694;2023-06-22T07:17:39;6.38;;;4.95;;
38715;SDS011;24833;49.324;8.694;2023-06-22T07:20:09;5.15;;;4.68;;
38715;SDS011;24833;49.324;8.694;2023-06-22T07:22:39;9.20;;;6.20;;
38715;SDS011;24833;49.324;8.694;2023-06-22T07:25:07;6.75;;;5.53;;
38715;SDS011;24833;49.324;8.694;2023-06-22T07:27:45;6.65;;;4.93;;
38715;SDS011;24833;49.324;8.694;2023-06-22T07:30:22;6.00;;;5.40;;
38715;SDS011;24833;49.324;8.694;2023-06-22T07:32:50;6.60;;;5.50;;
38715;SDS011;24833;49.324;8.694;2023-06-22T07:35:17;7.47;;;4.97;;
38715;SDS011;24833;49.324;8.694;2023-06-22T07:37:44;7.60;;;4.20;;
38715;SDS011;24833;49.324;8.694;2023-06-22T07:40:11;6.65;;;5.10;;
38715;SDS011;24833;49.324;8.694;2023-06-22T07:42:39;7.72;;;5.18;;
38715;SDS011;24833;49.324;8.694;2023-06-22T07:45:07;8.70;;;5.47;;
38715;SDS011;24833;49.324;8.694;2023-06-22T07:47:34;5.10;;;4.35;;
38715;SDS011;24833;49.324;8.694;2023-06-22T07:50:03;6.80;;;5.47;;
38715;SDS011;24833;49.324;8.694;2023-06-22T07:52:30;5.68;;;5.07;;
38715;SDS011;24833;49.324;8.694;2023-06-22T07:54:58;7.80;;;4.90;;
38715;SDS011;24833;49.324;8.694;2023-06-22T07:57:25;4.93;;;4.50;;
38715;SDS011;24833;49.324;8.694;2023-06-22T08:00:00;4.97;;;4.28;;
38715;SDS011;24833;49.324;8.694;2023-06-22T08:02:38;7.28;;;4.80;;
38715;SDS011;24833;49.324;8.694;2023-06-22T08:05:07;5.70;;;4.57;;
38715;SDS011;24833;49.324;8.694;2023-06-22T08:07:46;5.28;;;4.78;;
38715;SDS011;24833;49.324;8.694;2023-06-22T08:10:14;6.55;;;5.47;;
38715;SDS011;24833;49.324;8.694;2023-06-22T08:12:41;5.50;;;4.50;;
38715;SDS011;24833;49.324;8.694;2023-06-22T08:15:09;5.00;;;3.92;;
38715;SDS011;24833;49.324;8.694;2023-06-22T08:17:37;5.15;;;4.40;;
38715;SDS011;24833;49.324;8.694;2023-06-22T08:20:06;4.35;;;3.95;;
38715;SDS011;24833;49.324;8.694;2023-06-22T08:22:36;4.53;;;3.88;;
38715;SDS011;24833;49.324;8.694;2023-06-22T08:25:03;5.93;;;4.07;;
38715;SDS011;24833;49.324;8.694;2023-06-22T08:27:30;4.35;;;3.95;;
38715;SDS011;24833;49.324;8.694;2023-06-22T08:30:02;6.28;;;4.35;;
38715;SDS011;24833;49.324;8.694;2023-06-22T08:32:29;6.10;;;4.18;;
38715;SDS011;24833;49.324;8.694;2023-06-22T08:34:59;4.87;;;4.03;;
38715;SDS011;24833;49.324;8.694;2023-06-22T08:37:26;5.22;;;4.07;;
38715;SDS011;24833;49.324;8.694;2023-06-22T08:39:58;4.28;;;3.97;;
38715;SDS011;24833;49.324;8.694;2023-06-22T08:42:27;5.25;;;4.47;;
38715;SDS011;24833;49.324;8.694;2023-06-22T08:44:54;5.40;;;4.43;;
38715;SDS011;24833;49.324;8.694;2023-06-22T08:47:22;4.50;;;4.10;;
38715;SDS011;24833;49.324;8.694;2023-06-22T08:49:49;4.80;;;4.00;;
38715;SDS011;24833;49.324;8.694;2023-06-22T08:52:17;5.15;;;3.78;;
38715;SDS011;24833;49.324;8.694;2023-06-22T08:54:47;5.38;;;4.28;;
38715;SDS011;24833;49.324;8.694;2023-06-22T08:57:14;8.35;;;4.30;;
38715;SDS011;24833;49.324;8.694;2023-06-22T08:59:42;5.03;;;4.13;;
38715;SDS011;24833;49.324;8.694;2023-06-22T09:02:09;4.53;;;3.72;;
38715;SDS011;24833;49.324;8.694;2023-06-22T09:04:36;6.90;;;4.28;;
38715;SDS011;24833;49.324;8.694;2023-06-22T09:07:04;5.05;;;4.00;;
38715;SDS011;24833;49.324;8.694;2023-06-22T09:09:31;4.53;;;4.03;;
38715;SDS011;24833;49.324;8.694;2023-06-22T09:11:58;6.10;;;4.35;;
38715;SDS011;24833;49.324;8.694;2023-06-22T09:14:25;4.65;;;4.15;;
38715;SDS011;24833;49.324;8.694;2023-06-22T09:16:52;4.55;;;3.70;;
38715;SDS011;24833;49.324;8.694;2023-06-22T09:19:19;4.43;;;4.03;;
38715;SDS011;24833;49.324;8.694;2023-06-22T09:21:46;11.05;;;4.40;;
38715;SDS011;24833;49.324;8.694;2023-06-22T09:24:13;6.95;;;4.03;;
38715;SDS011;24833;49.324;8.694;2023-06-22T09:26:43;7.15;;;4.25;;
38715;SDS011;24833;49.324;8.694;2023-06-22T09:29:10;6.57;;;4.63;;
38715;SDS011;24833;49.324;8.694;2023-06-22T09:31:37;4.63;;;3.97;;
38715;SDS011;24833;49.324;8.694;2023-06-22T09:34:04;6.22;;;4.05;;
38715;SDS011;24833;49.324;8.694;2023-06-22T09:36:31;4.55;;;3.40;;
38715;SDS011;24833;49.324;8.694;2023-06-22T09:38:58;5.57;;;3.83;;
38715;SDS011;24833;49.324;8.694;2023-06-22T09:41:27;5.83;;;3.30;;
38715;SDS011;24833;49.324;8.694;2023-06-22T09:43:55;4.57;;;3.80;;
38715;SDS011;24833;49.324;8.694;2023-06-22T09:46:22;5.93;;;3.75;;
38715;SDS011;24833;49.324;8.694;2023-06-22T09:48:51;5.27;;;3.87;;
38715;SDS011;24833;49.324;8.694;2023-06-22T09:51:19;5.43;;;3.75;;
38715;SDS011;24833;49.324;8.694;2023-06-22T09:53:48;7.95;;;3.97;;
38715;SDS011;24833;49.324;8.694;2023-06-22T09:56:15;6.13;;;4.22;;
38715;SDS011;24833;49.324;8.694;2023-06-22T09:58:43;7.18;;;4.47;;
38715;SDS011;24833;49.324;8.694;2023-06-22T10:01:12;8.27;;;3.70;;
38715;SDS011;24833;49.324;8.694;2023-06-22T10:03:42;6.45;;;4.00;;
38715;SDS011;24833;49.324;8.694;2023-06-22T10:06:10;5.40;;;3.80;;
38715;SDS011;24833;49.324;8.694;2023-06-22T10:08:37;6.43;;;3.92;;
38715;SDS011;24833;49.324;8.694;2023-06-22T10:11:06;8.32;;;4.10;;
38715;SDS011;24833;49.324;8.694;2023-06-22T10:13:33;4.35;;;3.83;;
38715;SDS011;24833;49.324;8.694;2023-06-22T10:16:00;6.93;;;3.88;;
38715;SDS011;24833;49.324;8.694;2023-06-22T10:18:27;5.30;;;3.88;;
38715;SDS011;24833;49.324;8.694;2023-06-22T10:20:54;11.02;;;4.72;;
38715;SDS011;24833;49.324;8.694;2023-06-22T10:23:21;4.00;;;3.25;;
38715;SDS011;24833;49.324;8.694;2023-06-22T10:25:48;7.40;;;3.65;;
38715;SDS011;24833;49.324;8.694;2023-06-22T10:28:16;5.13;;;4.30;;
38715;SDS011;24833;49.324;8.694;2023-06-22T10:30:43;5.10;;;3.60;;
38715;SDS011;24833;49.324;8.694;2023-06-22T10:33:11;6.50;;;4.05;;
38715;SDS011;24833;49.324;8.694;2023-06-22T10:35:38;8.25;;;4.00;;
38715;SDS011;24833;49.324;8.694;2023-06-22T10:38:05;6.13;;;3.65;;
38715;SDS011;24833;49.324;8.694;2023-06-22T10:40:33;7.18;;;4.10;;
38715;SDS011;24833;49.324;8.694;2023-06-22T10:43:00;5.07;;;3.42;;
38715;SDS011;24833;49.324;8.694;2023-06-22T10:45:27;7.90;;;4.43;;
38715;SDS011;24833;49.324;8.694;2023-06-22T10:47:55;6.53;;;3.80;;
38715;SDS011;24833;49.324;8.694;2023-06-22T10:50:23;8.23;;;3.97;;
38715;SDS011;24833;49.324;8.694;2023-06-22T10:52:51;7.27;;;4.17;;
38715;SDS011;24833;49.324;8.694;2023-06-22T10:55:19;6.68;;;3.72;;
38715;SDS011;24833;49.324;8.694;2023-06-22T10:57:46;7.22;;;3.70;;
38715;SDS011;24833;49.324;8.694;2023-06-22T11:00:14;5.30;;;3.45;;
38715;SDS011;24833;49.324;8.694;2023-06-22T11:02:42;5.07;;;3.90;;
38715;SDS011;24833;49.324;8.694;2023-06-22T11:05:10;6.35;;;3.50;;
38715;SDS011;24833;49.324;8.694;2023-06-22T11:07:41;6.07;;;4.10;;
38715;SDS011;24833;49.324;8.694;2023-06-22T11:10:14;6.55;;;3.42;;
38715;SDS011;24833;49.324;8.694;2023-06-22T11:12:41;6.85;;;3.35;;
38715;SDS011;24833;49.324;8.694;2023-06-22T11:15:09;5.03;;;3.30;;
38715;SDS011;24833;49.324;8.694;2023-06-22T11:17:36;7.07;;;3.97;;
38715;SDS011;24833;49.324;8.694;2023-06-22T11:20:03;5.93;;;3.88;;
38715;SDS011;24833;49.324;8.694;2023-06-22T11:22:40;7.10;;;3.95;;
38715;SDS011;24833;49.324;8.694;2023-06-22T11:25:08;6.18;;;4.07;;
38715;SDS011;24833;49.324;8.694;2023-06-22T11:27:38;10.20;;;3.88;;
38715;SDS011;24833;49.324;8.694;2023-06-22T11:30:08;7.57;;;3.92;;
38715;SDS011;24833;49.324;8.694;2023-06-22T11:32:35;8.13;;;3.85;;
38715;SDS011;24833;49.324;8.694;2023-06-22T11:35:03;5.53;;;3.60;;
38715;SDS011;24833;49.324;8.694;2023-06-22T11:37:30;5.53;;;3.83;;
38715;SDS011;24833;49.324;8.694;2023-06-22T11:39:57;4.45;;;3.45;;
38715;SDS011;24833;49.324;8.694;2023-06-22T11:42:33;4.95;;;3.97;;
38715;SDS011;24833;49.324;8.694;2023-06-22T11:45:00;9.18;;;3.58;;
38715;SDS011;24833;49.324;8.694;2023-06-22T11:47:29;8.70;;;3.92;;
38715;SDS011;24833;49.324;8.694;2023-06-22T11:49:56;10.80;;;4.05;;
38715;SDS011;24833;49.324;8.694;2023-06-22T11:52:23;8.10;;;3.80;;
38715;SDS011;24833;49.324;8.694;2023-06-22T11:54:50;7.47;;;3.65;;
38715;SDS011;24833;49.324;8.694;2023-06-22T11:57:17;6.20;;;3.95;;
38715;SDS011;24833;49.324;8.694;2023-06-22T11:59:44;5.75;;;3.80;;
38715;SDS011;24833;49.324;8.694;2023-06-22T12:02:11;8.65;;;4.07;;
38715;SDS011;24833;49.324;8.694;2023-06-22T12:04:38;5.88;;;3.35;;
38715;SDS011;24833;49.324;8.694;2023-06-22T12:07:05;5.15;;;3.53;;
38715;SDS011;24833;49.324;8.694;2023-06-22T12:09:33;7.90;;;3.47;;
38715;SDS011;24833;49.324;8.694;2023-06-22T12:12:00;5.90;;;3.55;;
38715;SDS011;24833;49.324;8.694;2023-06-22T12:14:28;7.35;;;3.90;;
38715;SDS011;24833;49.324;8.694;2023-06-22T12:16:57;5.10;;;3.42;;
38715;SDS011;24833;49.324;8.694;2023-06-22T12:19:24;4.07;;;3.20;;
38715;SDS011;24833;49.324;8.694;2023-06-22T12:21:51;5.35;;;3.95;;
38715;SDS011;24833;49.324;8.694;2023-06-22T12:24:18;5.40;;;3.13;;
38715;SDS011;24833;49.324;8.694;2023-06-22T12:26:45;5.78;;;3.90;;
38715;SDS011;24833;49.324;8.694;2023-06-22T12:29:12;4.50;;;3.40;;
38715;SDS011;24833;49.324;8.694;2023-06-22T12:31:39;6.28;;;3.72;;
38715;SDS011;24833;49.324;8.694;2023-06-22T12:34:06;6.30;;;3.28;;
38715;SDS011;24833;49.324;8.694;2023-06-22T12:36:33;6.18;;;4.03;;
38715;SDS011;24833;49.324;8.694;2023-06-22T12:39:00;5.97;;;3.33;;
38715;SDS011;24833;49.324;8.694;2023-06-22T12:41:27;4.35;;;3.47;;
38715;SDS011;24833;49.324;8.694;2023-06-22T12:43:54;10.50;;;3.72;;
38715;SDS011;24833;49.324;8.694;2023-06-22T12:46:21;5.95;;;3.50;;
38715;SDS011;24833;49.324;8.694;2023-06-22T12:48:48;7.55;;;3.55;;
38715;SDS011;24833;49.324;8.694;2023-06-22T12:51:22;6.10;;;3.50;;
38715;SDS011;24833;49.324;8.694;2023-06-22T12:53:49;5.88;;;3.72;;
38715;SDS011;24833;49.324;8.694;2023-06-22T12:56:16;4.45;;;3.05;;
38715;SDS011;24833;49.324;8.694;2023-06-22T12:58:43;8.15;;;3.95;;
38715;SDS011;24833;49.324;8.694;2023-06-22T13:01:11;7.47;;;3.47;;
38715;SDS011;24833;49.324;8.694;2023-06-22T13:03:38;6.45;;;3.60;;
38715;SDS011;24833;49.324;8.694;2023-06-22T13:06:05;7.25;;;4.05;;
38715;SDS011;24833;49.324;8.694;2023-06-22T13:08:32;5.57;;;3.58;;
38715;SDS011;24833;49.324;8.694;2023-06-22T13:11:19;5.85;;;3.58;;
38715;SDS011;24833;49.324;8.694;2023-06-22T13:13:46;10.27;;;4.43;;
38715;SDS011;24833;49.324;8.694;2023-06-22T13:16:13;7.63;;;3.53;;
38715;SDS011;24833;49.324;8.694;2023-06-22T13:18:40;6.20;;;4.05;;
38715;SDS011;24833;49.324;8.694;2023-06-22T13:21:07;8.82;;;3.58;;
38715;SDS011;24833;49.324;8.694;2023-06-22T13:23:34;5.07;;;3.40;;
38715;SDS011;24833;49.324;8.694;2023-06-22T13:26:01;3.85;;;3.47;;
38715;SDS011;24833;49.324;8.694;2023-06-22T13:28:29;4.97;;;3.95;;
38715;SDS011;24833;49.324;8.694;2023-06-22T13:30:56;7.30;;;3.63;;
38715;SDS011;24833;49.324;8.694;2023-06-22T13:33:23;6.03;;;3.40;;
38715;SDS011;24833;49.324;8.694;2023-06-22T13:35:50;6.47;;;3.42;;
38715;SDS011;24833;49.324;8.694;2023-06-22T13:38:17;7.10;;;4.07;;
38715;SDS011;24833;49.324;8.694;2023-06-22T13:40:45;7.32;;;3.85;;
38715;SDS011;24833;49.324;8.694;2023-06-22T13:43:13;7.68;;;4.00;;
38715;SDS011;24833;49.324;8.694;2023-06-22T13:45:42;6.15;;;3.63;;
38715;SDS011;24833;49.324;8.694;2023-06-22T13:48:09;9.60;;;3.88;;
38715;SDS011;24833;49.324;8.694;2023-06-22T13:50:36;8.82;;;3.65;;
38715;SDS011;24833;49.324;8.694;2023-06-22T13:53:04;7.82;;;4.00;;
38715;SDS011;24833;49.324;8.694;2023-06-22T13:55:31;6.03;;;4.10;;
38715;SDS011;24833;49.324;8.694;2023-06-22T13:57:58;7.88;;;3.85;;
38715;SDS011;24833;49.324;8.694;2023-06-22T14:00:25;7.75;;;3.95;;
38715;SDS011;24833;49.324;8.694;2023-06-22T14:02:53;5.85;;;3.88;;
38715;SDS011;24833;49.324;8.694;2023-06-22T14:05:21;8.25;;;4.32;;
38715;SDS011;24833;49.324;8.694;2023-06-22T14:07:48;5.88;;;4.00;;
38715;SDS011;24833;49.324;8.694;2023-06-22T14:10:15;5.10;;;3.28;;
38715;SDS011;24833;49.324;8.694;2023-06-22T14:12:42;5.35;;;3.22;;
38715;SDS011;24833;49.324;8.694;2023-06-22T14:15:09;9.07;;;4.20;;
38715;SDS011;24833;49.324;8.694;2023-06-22T14:17:36;7.57;;;4.40;;
38715;SDS011;24833;49.324;8.694;2023-06-22T14:20:04;8.77;;;3.92;;
38715;SDS011;24833;49.324;8.694;2023-06-22T14:22:33;7.40;;;4.43;;
38715;SDS011;24833;49.324;8.694;2023-06-22T14:25:01;7.13;;;4.70;;
38715;SDS011;24833;49.324;8.694;2023-06-22T14:27:29;7.32;;;4.15;;
38715;SDS011;24833;49.324;8.694;2023-06-22T14:29:56;4.88;;;3.50;;
38715;SDS011;24833;49.324;8.694;2023-06-22T14:32:23;10.55;;;3.67;;
38715;SDS011;24833;49.324;8.694;2023-06-22T14:34:51;8.75;;;3.97;;
38715;SDS011;24833;49.324;8.694;2023-06-22T14:37:20;4.88;;;3.58;;
38715;SDS011;24833;49.324;8.694;2023-06-22T14:39:47;5.63;;;3.42;;
38715;SDS011;24833;49.324;8.694;2023-06-22T14:42:14;8.27;;;3.67;;
38715;SDS011;24833;49.324;8.694;2023-06-22T14:44:41;5.93;;;3.60;;
38715;SDS011;24833;49.324;8.694;2023-06-22T14:47:08;5.72;;;3.72;;
38715;SDS011;24833;49.324;8.694;2023-06-22T14:49:35;5.88;;;4.18;;
38715;SDS011;24833;49.324;8.694;2023-06-22T14:52:03;8.30;;;4.68;;
38715;SDS011;24833;49.324;8.694;2023-06-22T14:54:30;6.43;;;3.83;;
38715;SDS011;24833;49.324;8.694;2023-06-22T14:56:57;11.40;;;4.35;;
38715;SDS011;24833;49.324;8.694;2023-06-22T14:59:25;7.30;;;4.03;;
38715;SDS011;24833;49.324;8.694;2023-06-22T15:01:52;6.70;;;3.67;;